Terminal Aerodrome Forecast
Issued by NWS Sterling, VA

Current Version | Previous Version | Graphics & Text | Print | Product List | Glossary On
Versions: 1 2 3 4 5 6 7 8 9 10 11 12 13 14 15 16 17 18 19 20 21
000
FTUS41 KLWX 241129
TAFIAD
TAF
KIAD 241129Z 2412/2518 VRB03KT P6SM FEW080 SCT250
     FM241500 19007KT P6SM SCT060
     FM250700 18005KT P6SM SCT050 BKN150=

USA.gov is the U.S. government's official web portal to all federal, state and local government web resources and services.